METAR Data
IDs: Format: Raw Decoded Include TAF

Data at: 1506 UTC 27 Nov 2021

SBGR 271500Z 29013KT 260V330 CAVOK 28/14 Q1008